sensor_id;sensor_type;location;lat;lon;timestamp;P1;durP1;ratioP1;P2;durP2;ratioP2
8252;SDS011;61313;48.396;10.008;2023-03-01T00:02:19;19.20;;;12.67;;
8252;SDS011;61313;48.396;10.008;2023-03-01T00:04:45;18.83;;;12.93;;
8252;SDS011;61313;48.396;10.008;2023-03-01T00:07:11;18.10;;;13.43;;
8252;SDS011;61313;48.396;10.008;2023-03-01T00:09:36;21.50;;;13.27;;
8252;SDS011;61313;48.396;10.008;2023-03-01T00:12:02;17.90;;;13.57;;
8252;SDS011;61313;48.396;10.008;2023-03-01T00:14:28;17.30;;;12.57;;
8252;SDS011;61313;48.396;10.008;2023-03-01T00:16:54;18.33;;;11.83;;
8252;SDS011;61313;48.396;10.008;2023-03-01T00:19:19;19.53;;;12.70;;
8252;SDS011;61313;48.396;10.008;2023-03-01T00:21:47;19.83;;;12.70;;
8252;SDS011;61313;48.396;10.008;2023-03-01T00:24:13;19.67;;;12.33;;
8252;SDS011;61313;48.396;10.008;2023-03-01T00:26:39;19.53;;;12.93;;
8252;SDS011;61313;48.396;10.008;2023-03-01T00:29:05;23.77;;;12.33;;
8252;SDS011;61313;48.396;10.008;2023-03-01T00:31:31;22.33;;;14.20;;
8252;SDS011;61313;48.396;10.008;2023-03-01T00:34:03;16.97;;;12.53;;
8252;SDS011;61313;48.396;10.008;2023-03-01T00:36:32;19.43;;;13.53;;
8252;SDS011;61313;48.396;10.008;2023-03-01T00:38:59;16.40;;;12.40;;
8252;SDS011;61313;48.396;10.008;2023-03-01T00:41:25;20.43;;;13.50;;
8252;SDS011;61313;48.396;10.008;2023-03-01T00:43:54;21.40;;;12.40;;
8252;SDS011;61313;48.396;10.008;2023-03-01T00:46:21;19.00;;;13.17;;
8252;SDS011;61313;48.396;10.008;2023-03-01T00:48:49;20.90;;;14.17;;
8252;SDS011;61313;48.396;10.008;2023-03-01T00:51:16;19.57;;;11.80;;
8252;SDS011;61313;48.396;10.008;2023-03-01T00:53:44;18.10;;;12.13;;
8252;SDS011;61313;48.396;10.008;2023-03-01T00:56:11;19.20;;;14.23;;
8252;SDS011;61313;48.396;10.008;2023-03-01T00:58:38;20.67;;;13.13;;
8252;SDS011;61313;48.396;10.008;2023-03-01T01:01:08;22.23;;;14.70;;
8252;SDS011;61313;48.396;10.008;2023-03-01T01:03:42;20.43;;;14.70;;
8252;SDS011;61313;48.396;10.008;2023-03-01T01:06:15;20.93;;;15.43;;
8252;SDS011;61313;48.396;10.008;2023-03-01T01:09:00;19.20;;;13.10;;
8252;SDS011;61313;48.396;10.008;2023-03-01T01:11:28;21.67;;;15.50;;
8252;SDS011;61313;48.396;10.008;2023-03-01T01:13:55;23.20;;;15.90;;
8252;SDS011;61313;48.396;10.008;2023-03-01T01:16:22;23.07;;;14.50;;
8252;SDS011;61313;48.396;10.008;2023-03-01T01:18:49;23.37;;;14.13;;
8252;SDS011;61313;48.396;10.008;2023-03-01T01:21:16;23.00;;;13.60;;
8252;SDS011;61313;48.396;10.008;2023-03-01T01:23:43;24.07;;;15.50;;
8252;SDS011;61313;48.396;10.008;2023-03-01T01:26:11;23.50;;;15.33;;
8252;SDS011;61313;48.396;10.008;2023-03-01T01:28:39;21.57;;;14.00;;
8252;SDS011;61313;48.396;10.008;2023-03-01T01:31:05;19.40;;;13.90;;
8252;SDS011;61313;48.396;10.008;2023-03-01T01:33:31;22.73;;;14.17;;
8252;SDS011;61313;48.396;10.008;2023-03-01T01:35:57;18.90;;;13.87;;
8252;SDS011;61313;48.396;10.008;2023-03-01T01:38:23;23.77;;;15.40;;
8252;SDS011;61313;48.396;10.008;2023-03-01T01:40:48;20.23;;;13.57;;
8252;SDS011;61313;48.396;10.008;2023-03-01T01:43:19;19.90;;;13.97;;
8252;SDS011;61313;48.396;10.008;2023-03-01T01:45:50;19.73;;;14.30;;
8252;SDS011;61313;48.396;10.008;2023-03-01T01:48:21;21.07;;;14.43;;
8252;SDS011;61313;48.396;10.008;2023-03-01T01:50:56;21.03;;;14.27;;
8252;SDS011;61313;48.396;10.008;2023-03-01T01:53:25;21.20;;;14.40;;
8252;SDS011;61313;48.396;10.008;2023-03-01T01:55:53;21.60;;;15.40;;
8252;SDS011;61313;48.396;10.008;2023-03-01T01:58:22;20.70;;;13.80;;
8252;SDS011;61313;48.396;10.008;2023-03-01T02:00:51;24.23;;;13.40;;
8252;SDS011;61313;48.396;10.008;2023-03-01T02:03:19;18.47;;;15.00;;
8252;SDS011;61313;48.396;10.008;2023-03-01T02:08:37;26.17;;;14.97;;
8252;SDS011;61313;48.396;10.008;2023-03-01T02:11:03;24.40;;;14.57;;
8252;SDS011;61313;48.396;10.008;2023-03-01T02:13:32;20.67;;;14.13;;
8252;SDS011;61313;48.396;10.008;2023-03-01T02:16:00;19.77;;;14.77;;
8252;SDS011;61313;48.396;10.008;2023-03-01T02:18:28;19.10;;;14.13;;
8252;SDS011;61313;48.396;10.008;2023-03-01T02:23:25;18.43;;;14.57;;
8252;SDS011;61313;48.396;10.008;2023-03-01T02:25:52;22.20;;;14.87;;
8252;SDS011;61313;48.396;10.008;2023-03-01T02:28:38;23.00;;;16.80;;
8252;SDS011;61313;48.396;10.008;2023-03-01T02:31:07;22.03;;;15.13;;
8252;SDS011;61313;48.396;10.008;2023-03-01T02:33:52;23.63;;;15.97;;
8252;SDS011;61313;48.396;10.008;2023-03-01T02:36:19;21.43;;;14.77;;
8252;SDS011;61313;48.396;10.008;2023-03-01T02:38:48;20.70;;;14.17;;
8252;SDS011;61313;48.396;10.008;2023-03-01T02:41:17;23.30;;;14.37;;
8252;SDS011;61313;48.396;10.008;2023-03-01T02:43:45;26.80;;;15.90;;
8252;SDS011;61313;48.396;10.008;2023-03-01T02:46:19;18.70;;;15.53;;
8252;SDS011;61313;48.396;10.008;2023-03-01T02:48:52;22.83;;;13.30;;
8252;SDS011;61313;48.396;10.008;2023-03-01T02:54:01;20.20;;;13.70;;
8252;SDS011;61313;48.396;10.008;2023-03-01T02:56:34;23.60;;;14.57;;
8252;SDS011;61313;48.396;10.008;2023-03-01T02:59:00;25.37;;;15.47;;
8252;SDS011;61313;48.396;10.008;2023-03-01T03:01:27;22.00;;;15.67;;
8252;SDS011;61313;48.396;10.008;2023-03-01T03:04:05;21.20;;;14.30;;
8252;SDS011;61313;48.396;10.008;2023-03-01T03:06:35;20.50;;;14.13;;
8252;SDS011;61313;48.396;10.008;2023-03-01T03:09:01;20.53;;;14.77;;
8252;SDS011;61313;48.396;10.008;2023-03-01T03:11:28;19.90;;;13.47;;
8252;SDS011;61313;48.396;10.008;2023-03-01T03:13:54;22.13;;;14.53;;
8252;SDS011;61313;48.396;10.008;2023-03-01T03:16:20;22.37;;;14.47;;
8252;SDS011;61313;48.396;10.008;2023-03-01T03:18:46;17.37;;;13.67;;
8252;SDS011;61313;48.396;10.008;2023-03-01T03:21:12;20.60;;;14.70;;
8252;SDS011;61313;48.396;10.008;2023-03-01T03:23:38;20.40;;;14.73;;
8252;SDS011;61313;48.396;10.008;2023-03-01T03:26:04;22.50;;;15.63;;
8252;SDS011;61313;48.396;10.008;2023-03-01T03:28:31;17.30;;;14.10;;
8252;SDS011;61313;48.396;10.008;2023-03-01T03:30:58;20.40;;;13.87;;
8252;SDS011;61313;48.396;10.008;2023-03-01T03:33:28;21.93;;;14.40;;
8252;SDS011;61313;48.396;10.008;2023-03-01T03:35:57;24.83;;;15.73;;
8252;SDS011;61313;48.396;10.008;2023-03-01T03:38:23;20.60;;;14.77;;
8252;SDS011;61313;48.396;10.008;2023-03-01T03:40:50;21.10;;;14.67;;
8252;SDS011;61313;48.396;10.008;2023-03-01T03:43:21;26.47;;;15.07;;
8252;SDS011;61313;48.396;10.008;2023-03-01T03:45:48;22.57;;;14.97;;
8252;SDS011;61313;48.396;10.008;2023-03-01T03:48:15;23.73;;;15.70;;
8252;SDS011;61313;48.396;10.008;2023-03-01T03:50:46;21.03;;;15.67;;
8252;SDS011;61313;48.396;10.008;2023-03-01T03:53:14;19.20;;;13.80;;
8252;SDS011;61313;48.396;10.008;2023-03-01T03:55:40;24.13;;;14.93;;
8252;SDS011;61313;48.396;10.008;2023-03-01T03:58:06;22.23;;;15.90;;
8252;SDS011;61313;48.396;10.008;2023-03-01T04:00:34;24.20;;;15.93;;
8252;SDS011;61313;48.396;10.008;2023-03-01T04:03:03;21.70;;;16.40;;
8252;SDS011;61313;48.396;10.008;2023-03-01T04:05:30;22.23;;;14.37;;
8252;SDS011;61313;48.396;10.008;2023-03-01T04:07:56;22.30;;;15.50;;
8252;SDS011;61313;48.396;10.008;2023-03-01T04:10:32;21.47;;;15.23;;
8252;SDS011;61313;48.396;10.008;2023-03-01T04:13:01;23.20;;;14.80;;
8252;SDS011;61313;48.396;10.008;2023-03-01T04:15:27;22.17;;;16.40;;
8252;SDS011;61313;48.396;10.008;2023-03-01T04:17:53;22.37;;;15.53;;
8252;SDS011;61313;48.396;10.008;2023-03-01T04:20:21;24.33;;;15.13;;
8252;SDS011;61313;48.396;10.008;2023-03-01T04:22:52;21.23;;;14.10;;
8252;SDS011;61313;48.396;10.008;2023-03-01T04:25:23;21.03;;;13.57;;
8252;SDS011;61313;48.396;10.008;2023-03-01T04:27:49;21.53;;;16.20;;
8252;SDS011;61313;48.396;10.008;2023-03-01T04:30:15;27.97;;;16.17;;
8252;SDS011;61313;48.396;10.008;2023-03-01T04:32:41;22.30;;;15.90;;
8252;SDS011;61313;48.396;10.008;2023-03-01T04:35:07;20.27;;;13.90;;
8252;SDS011;61313;48.396;10.008;2023-03-01T04:37:33;24.77;;;14.00;;
8252;SDS011;61313;48.396;10.008;2023-03-01T04:40:00;22.30;;;15.00;;
8252;SDS011;61313;48.396;10.008;2023-03-01T04:42:33;28.57;;;16.83;;
8252;SDS011;61313;48.396;10.008;2023-03-01T04:44:58;26.73;;;15.30;;
8252;SDS011;61313;48.396;10.008;2023-03-01T04:47:25;19.20;;;14.80;;
8252;SDS011;61313;48.396;10.008;2023-03-01T04:49:50;20.13;;;15.63;;
8252;SDS011;61313;48.396;10.008;2023-03-01T04:52:16;22.03;;;16.10;;
8252;SDS011;61313;48.396;10.008;2023-03-01T04:54:41;24.20;;;15.60;;
8252;SDS011;61313;48.396;10.008;2023-03-01T04:57:08;28.07;;;16.63;;
8252;SDS011;61313;48.396;10.008;2023-03-01T04:59:33;22.83;;;15.50;;
8252;SDS011;61313;48.396;10.008;2023-03-01T05:02:01;28.43;;;16.10;;
8252;SDS011;61313;48.396;10.008;2023-03-01T05:04:26;25.60;;;17.30;;
8252;SDS011;61313;48.396;10.008;2023-03-01T05:06:52;22.07;;;14.93;;
8252;SDS011;61313;48.396;10.008;2023-03-01T05:09:18;21.80;;;14.70;;
8252;SDS011;61313;48.396;10.008;2023-03-01T05:11:44;20.70;;;13.97;;
8252;SDS011;61313;48.396;10.008;2023-03-01T05:14:10;23.13;;;15.90;;
8252;SDS011;61313;48.396;10.008;2023-03-01T05:16:36;22.60;;;15.13;;
8252;SDS011;61313;48.396;10.008;2023-03-01T05:19:03;21.70;;;16.57;;
8252;SDS011;61313;48.396;10.008;2023-03-01T05:21:40;18.97;;;12.27;;
8252;SDS011;61313;48.396;10.008;2023-03-01T05:24:26;22.23;;;14.90;;
8252;SDS011;61313;48.396;10.008;2023-03-01T05:26:52;23.73;;;14.33;;
8252;SDS011;61313;48.396;10.008;2023-03-01T05:29:18;25.43;;;16.10;;
8252;SDS011;61313;48.396;10.008;2023-03-01T05:31:53;23.30;;;15.57;;
8252;SDS011;61313;48.396;10.008;2023-03-01T05:34:23;23.90;;;15.87;;
8252;SDS011;61313;48.396;10.008;2023-03-01T05:36:52;21.97;;;15.50;;
8252;SDS011;61313;48.396;10.008;2023-03-01T05:39:19;20.50;;;15.53;;
8252;SDS011;61313;48.396;10.008;2023-03-01T05:41:51;22.30;;;14.83;;
8252;SDS011;61313;48.396;10.008;2023-03-01T05:44:18;24.70;;;16.10;;
8252;SDS011;61313;48.396;10.008;2023-03-01T05:46:43;24.87;;;15.43;;
8252;SDS011;61313;48.396;10.008;2023-03-01T05:49:10;25.90;;;16.80;;
8252;SDS011;61313;48.396;10.008;2023-03-01T05:51:38;26.40;;;15.30;;
8252;SDS011;61313;48.396;10.008;2023-03-01T05:54:07;20.30;;;15.33;;
8252;SDS011;61313;48.396;10.008;2023-03-01T05:56:34;22.03;;;15.37;;
8252;SDS011;61313;48.396;10.008;2023-03-01T05:59:01;25.03;;;16.53;;
8252;SDS011;61313;48.396;10.008;2023-03-01T06:01:30;23.13;;;15.90;;
8252;SDS011;61313;48.396;10.008;2023-03-01T06:03:59;24.63;;;17.40;;
8252;SDS011;61313;48.396;10.008;2023-03-01T06:06:36;23.27;;;16.40;;
8252;SDS011;61313;48.396;10.008;2023-03-01T06:09:05;23.17;;;14.10;;
8252;SDS011;61313;48.396;10.008;2023-03-01T06:11:34;26.10;;;18.27;;
8252;SDS011;61313;48.396;10.008;2023-03-01T06:14:01;24.20;;;16.97;;
8252;SDS011;61313;48.396;10.008;2023-03-01T06:16:27;23.13;;;15.67;;
8252;SDS011;61313;48.396;10.008;2023-03-01T06:18:52;38.60;;;19.13;;
8252;SDS011;61313;48.396;10.008;2023-03-01T06:21:18;28.17;;;16.07;;
8252;SDS011;61313;48.396;10.008;2023-03-01T06:23:46;22.43;;;15.53;;
8252;SDS011;61313;48.396;10.008;2023-03-01T06:26:12;25.97;;;17.30;;
8252;SDS011;61313;48.396;10.008;2023-03-01T06:28:38;32.70;;;16.00;;
8252;SDS011;61313;48.396;10.008;2023-03-01T06:31:03;25.17;;;15.17;;
8252;SDS011;61313;48.396;10.008;2023-03-01T06:33:29;27.60;;;18.20;;
8252;SDS011;61313;48.396;10.008;2023-03-01T06:35:55;24.27;;;16.57;;
8252;SDS011;61313;48.396;10.008;2023-03-01T06:38:21;21.93;;;13.87;;
8252;SDS011;61313;48.396;10.008;2023-03-01T06:40:54;26.03;;;16.67;;
8252;SDS011;61313;48.396;10.008;2023-03-01T06:43:21;24.33;;;14.63;;
8252;SDS011;61313;48.396;10.008;2023-03-01T06:45:48;27.17;;;16.80;;
8252;SDS011;61313;48.396;10.008;2023-03-01T06:48:14;25.30;;;16.60;;
8252;SDS011;61313;48.396;10.008;2023-03-01T06:50:40;20.90;;;15.27;;
8252;SDS011;61313;48.396;10.008;2023-03-01T06:53:05;24.30;;;14.77;;
8252;SDS011;61313;48.396;10.008;2023-03-01T06:55:31;25.43;;;16.17;;
8252;SDS011;61313;48.396;10.008;2023-03-01T06:57:57;29.53;;;16.90;;
8252;SDS011;61313;48.396;10.008;2023-03-01T07:00:25;26.50;;;17.20;;
8252;SDS011;61313;48.396;10.008;2023-03-01T07:02:51;20.93;;;15.33;;
8252;SDS011;61313;48.396;10.008;2023-03-01T07:05:17;25.63;;;17.10;;
8252;SDS011;61313;48.396;10.008;2023-03-01T07:07:43;21.50;;;14.70;;
8252;SDS011;61313;48.396;10.008;2023-03-01T07:10:10;22.63;;;14.80;;
8252;SDS011;61313;48.396;10.008;2023-03-01T07:12:36;22.87;;;16.10;;
8252;SDS011;61313;48.396;10.008;2023-03-01T07:15:03;23.47;;;14.67;;
8252;SDS011;61313;48.396;10.008;2023-03-01T07:17:29;28.03;;;14.43;;
8252;SDS011;61313;48.396;10.008;2023-03-01T07:19:55;24.00;;;15.53;;
8252;SDS011;61313;48.396;10.008;2023-03-01T07:22:21;21.47;;;15.53;;
8252;SDS011;61313;48.396;10.008;2023-03-01T07:24:46;22.80;;;16.00;;
8252;SDS011;61313;48.396;10.008;2023-03-01T07:27:12;23.13;;;14.93;;
8252;SDS011;61313;48.396;10.008;2023-03-01T07:29:37;24.43;;;16.27;;
8252;SDS011;61313;48.396;10.008;2023-03-01T07:32:04;21.30;;;14.80;;
8252;SDS011;61313;48.396;10.008;2023-03-01T07:34:30;21.57;;;15.47;;
8252;SDS011;61313;48.396;10.008;2023-03-01T07:36:56;21.17;;;14.43;;
8252;SDS011;61313;48.396;10.008;2023-03-01T07:39:22;25.03;;;15.93;;
8252;SDS011;61313;48.396;10.008;2023-03-01T07:41:48;23.00;;;13.73;;
8252;SDS011;61313;48.396;10.008;2023-03-01T07:44:14;19.07;;;12.83;;
8252;SDS011;61313;48.396;10.008;2023-03-01T07:46:41;19.83;;;14.87;;
8252;SDS011;61313;48.396;10.008;2023-03-01T07:49:06;21.10;;;15.60;;
8252;SDS011;61313;48.396;10.008;2023-03-01T07:51:32;20.43;;;15.67;;
8252;SDS011;61313;48.396;10.008;2023-03-01T07:53:58;23.20;;;15.63;;
8252;SDS011;61313;48.396;10.008;2023-03-01T07:56:23;22.10;;;14.00;;
8252;SDS011;61313;48.396;10.008;2023-03-01T07:58:49;22.60;;;15.27;;
8252;SDS011;61313;48.396;10.008;2023-03-01T08:01:15;28.90;;;16.67;;
8252;SDS011;61313;48.396;10.008;2023-03-01T08:03:43;24.30;;;16.43;;
8252;SDS011;61313;48.396;10.008;2023-03-01T08:06:09;28.50;;;18.27;;
8252;SDS011;61313;48.396;10.008;2023-03-01T08:08:36;23.10;;;17.77;;
8252;SDS011;61313;48.396;10.008;2023-03-01T08:11:02;26.50;;;17.00;;
8252;SDS011;61313;48.396;10.008;2023-03-01T08:13:29;25.53;;;17.87;;
8252;SDS011;61313;48.396;10.008;2023-03-01T08:16:00;27.37;;;17.57;;
8252;SDS011;61313;48.396;10.008;2023-03-01T08:18:30;25.27;;;17.60;;
8252;SDS011;61313;48.396;10.008;2023-03-01T08:21:00;27.33;;;17.37;;
8252;SDS011;61313;48.396;10.008;2023-03-01T08:23:33;28.80;;;16.57;;
8252;SDS011;61313;48.396;10.008;2023-03-01T08:26:03;29.20;;;17.47;;
8252;SDS011;61313;48.396;10.008;2023-03-01T08:28:39;21.33;;;14.73;;
8252;SDS011;61313;48.396;10.008;2023-03-01T08:31:22;29.53;;;17.17;;
8252;SDS011;61313;48.396;10.008;2023-03-01T08:34:00;29.23;;;17.93;;
8252;SDS011;61313;48.396;10.008;2023-03-01T08:36:29;24.60;;;16.63;;
8252;SDS011;61313;48.396;10.008;2023-03-01T08:38:56;28.37;;;17.90;;
8252;SDS011;61313;48.396;10.008;2023-03-01T08:41:22;23.23;;;15.03;;
8252;SDS011;61313;48.396;10.008;2023-03-01T08:43:49;27.43;;;17.33;;
8252;SDS011;61313;48.396;10.008;2023-03-01T08:46:14;23.13;;;16.30;;
8252;SDS011;61313;48.396;10.008;2023-03-01T08:48:40;23.80;;;15.53;;
8252;SDS011;61313;48.396;10.008;2023-03-01T08:51:15;24.40;;;16.47;;
8252;SDS011;61313;48.396;10.008;2023-03-01T08:53:41;24.80;;;17.00;;
8252;SDS011;61313;48.396;10.008;2023-03-01T08:56:08;26.80;;;15.53;;
8252;SDS011;61313;48.396;10.008;2023-03-01T08:58:34;22.37;;;15.27;;
8252;SDS011;61313;48.396;10.008;2023-03-01T09:01:00;26.97;;;16.70;;
8252;SDS011;61313;48.396;10.008;2023-03-01T09:03:26;23.87;;;16.30;;
8252;SDS011;61313;48.396;10.008;2023-03-01T09:05:52;26.67;;;16.40;;
8252;SDS011;61313;48.396;10.008;2023-03-01T09:08:18;28.33;;;16.33;;
8252;SDS011;61313;48.396;10.008;2023-03-01T09:10:44;22.83;;;15.90;;
8252;SDS011;61313;48.396;10.008;2023-03-01T09:13:10;33.30;;;17.10;;
8252;SDS011;61313;48.396;10.008;2023-03-01T09:15:36;24.27;;;16.33;;
8252;SDS011;61313;48.396;10.008;2023-03-01T09:18:02;28.53;;;18.10;;
8252;SDS011;61313;48.396;10.008;2023-03-01T09:20:28;28.13;;;16.50;;
8252;SDS011;61313;48.396;10.008;2023-03-01T09:22:55;25.53;;;16.13;;
8252;SDS011;61313;48.396;10.008;2023-03-01T09:25:21;25.90;;;16.60;;
8252;SDS011;61313;48.396;10.008;2023-03-01T09:27:47;27.17;;;18.00;;
8252;SDS011;61313;48.396;10.008;2023-03-01T09:30:12;24.63;;;15.57;;
8252;SDS011;61313;48.396;10.008;2023-03-01T09:32:38;28.40;;;17.27;;
8252;SDS011;61313;48.396;10.008;2023-03-01T09:35:07;23.47;;;15.93;;
8252;SDS011;61313;48.396;10.008;2023-03-01T09:37:33;24.97;;;17.27;;
8252;SDS011;61313;48.396;10.008;2023-03-01T09:39:59;22.80;;;16.17;;
8252;SDS011;61313;48.396;10.008;2023-03-01T09:42:25;27.37;;;16.70;;
8252;SDS011;61313;48.396;10.008;2023-03-01T09:44:57;28.63;;;18.40;;
8252;SDS011;61313;48.396;10.008;2023-03-01T09:47:27;26.90;;;17.33;;
8252;SDS011;61313;48.396;10.008;2023-03-01T09:50:04;28.60;;;18.87;;
8252;SDS011;61313;48.396;10.008;2023-03-01T09:55:27;19.00;;;12.87;;
8252;SDS011;61313;48.396;10.008;2023-03-01T09:58:01;26.13;;;16.57;;
8252;SDS011;61313;48.396;10.008;2023-03-01T10:00:42;31.10;;;17.13;;
8252;SDS011;61313;48.396;10.008;2023-03-01T10:03:24;26.10;;;17.33;;
8252;SDS011;61313;48.396;10.008;2023-03-01T10:05:56;24.50;;;16.47;;
8252;SDS011;61313;48.396;10.008;2023-03-01T10:11:04;26.53;;;16.50;;
8252;SDS011;61313;48.396;10.008;2023-03-01T10:13:54;20.73;;;15.07;;
8252;SDS011;61313;48.396;10.008;2023-03-01T10:19:20;27.90;;;16.00;;
8252;SDS011;61313;48.396;10.008;2023-03-01T10:21:51;22.37;;;16.87;;
8252;SDS011;61313;48.396;10.008;2023-03-01T10:24:18;26.17;;;15.60;;
8252;SDS011;61313;48.396;10.008;2023-03-01T10:29:31;25.43;;;15.70;;
8252;SDS011;61313;48.396;10.008;2023-03-01T10:32:18;29.87;;;16.10;;
8252;SDS011;61313;48.396;10.008;2023-03-01T10:34:44;22.70;;;16.00;;
8252;SDS011;61313;48.396;10.008;2023-03-01T10:39:54;22.97;;;16.70;;
8252;SDS011;61313;48.396;10.008;2023-03-01T10:42:29;32.20;;;18.03;;
8252;SDS011;61313;48.396;10.008;2023-03-01T10:44:56;26.43;;;16.77;;
8252;SDS011;61313;48.396;10.008;2023-03-01T10:47:23;25.60;;;17.80;;
8252;SDS011;61313;48.396;10.008;2023-03-01T10:49:54;26.87;;;18.23;;
8252;SDS011;61313;48.396;10.008;2023-03-01T10:52:20;25.80;;;15.97;;
8252;SDS011;61313;48.396;10.008;2023-03-01T10:54:56;28.13;;;17.90;;
8252;SDS011;61313;48.396;10.008;2023-03-01T10:57:28;31.13;;;20.63;;
8252;SDS011;61313;48.396;10.008;2023-03-01T11:00:19;24.63;;;17.93;;
8252;SDS011;61313;48.396;10.008;2023-03-01T11:03:02;27.30;;;17.27;;
8252;SDS011;61313;48.396;10.008;2023-03-01T11:05:35;24.93;;;18.53;;
8252;SDS011;61313;48.396;10.008;2023-03-01T11:08:01;27.93;;;18.03;;
8252;SDS011;61313;48.396;10.008;2023-03-01T11:10:29;24.60;;;17.80;;
8252;SDS011;61313;48.396;10.008;2023-03-01T11:13:18;25.73;;;17.73;;
8252;SDS011;61313;48.396;10.008;2023-03-01T11:15:58;26.43;;;17.63;;
8252;SDS011;61313;48.396;10.008;2023-03-01T11:18:27;22.27;;;16.77;;
8252;SDS011;61313;48.396;10.008;2023-03-01T11:20:55;29.07;;;18.13;;
8252;SDS011;61313;48.396;10.008;2023-03-01T11:23:23;24.30;;;16.93;;
8252;SDS011;61313;48.396;10.008;2023-03-01T11:25:57;27.77;;;18.10;;
8252;SDS011;61313;48.396;10.008;2023-03-01T11:28:27;34.87;;;19.00;;
8252;SDS011;61313;48.396;10.008;2023-03-01T11:31:07;27.60;;;17.20;;
8252;SDS011;61313;48.396;10.008;2023-03-01T11:33:42;25.00;;;16.67;;
8252;SDS011;61313;48.396;10.008;2023-03-01T11:38:53;28.40;;;18.60;;
8252;SDS011;61313;48.396;10.008;2023-03-01T11:41:20;27.50;;;19.40;;
8252;SDS011;61313;48.396;10.008;2023-03-01T11:46:36;26.73;;;16.03;;
8252;SDS011;61313;48.396;10.008;2023-03-01T12:11:53;28.67;;;18.60;;
8252;SDS011;61313;48.396;10.008;2023-03-01T12:14:46;22.57;;;17.77;;
8252;SDS011;61313;48.396;10.008;2023-03-01T12:20:21;26.30;;;17.63;;
8252;SDS011;61313;48.396;10.008;2023-03-01T12:25:41;26.13;;;16.67;;
8252;SDS011;61313;48.396;10.008;2023-03-01T12:33:53;24.63;;;17.40;;
8252;SDS011;61313;48.396;10.008;2023-03-01T12:36:28;30.77;;;17.20;;
8252;SDS011;61313;48.396;10.008;2023-03-01T12:50:34;27.23;;;17.60;;
8252;SDS011;61313;48.396;10.008;2023-03-01T12:52:55;25.53;;;17.10;;
8252;SDS011;61313;48.396;10.008;2023-03-01T12:55:29;27.73;;;17.67;;
8252;SDS011;61313;48.396;10.008;2023-03-01T13:00:45;27.07;;;17.60;;
8252;SDS011;61313;48.396;10.008;2023-03-01T13:11:43;31.83;;;18.77;;
8252;SDS011;61313;48.396;10.008;2023-03-01T13:16:47;23.40;;;16.13;;
8252;SDS011;61313;48.396;10.008;2023-03-01T13:19:21;23.70;;;17.53;;
8252;SDS011;61313;48.396;10.008;2023-03-01T13:21:49;21.93;;;16.93;;
8252;SDS011;61313;48.396;10.008;2023-03-01T13:32:45;24.03;;;17.20;;
8252;SDS011;61313;48.396;10.008;2023-03-01T13:37:39;27.27;;;17.13;;
8252;SDS011;61313;48.396;10.008;2023-03-01T13:42:53;25.10;;;18.50;;
8252;SDS011;61313;48.396;10.008;2023-03-01T13:45:21;21.60;;;16.07;;
8252;SDS011;61313;48.396;10.008;2023-03-01T13:47:54;25.07;;;16.40;;
8252;SDS011;61313;48.396;10.008;2023-03-01T13:50:24;31.90;;;18.13;;
8252;SDS011;61313;48.396;10.008;2023-03-01T13:57:50;23.63;;;17.40;;
8252;SDS011;61313;48.396;10.008;2023-03-01T14:00:29;22.13;;;16.50;;
8252;SDS011;61313;48.396;10.008;2023-03-01T14:03:02;20.17;;;15.23;;
8252;SDS011;61313;48.396;10.008;2023-03-01T14:05:28;24.13;;;16.30;;
8252;SDS011;61313;48.396;10.008;2023-03-01T14:07:55;25.23;;;17.00;;
8252;SDS011;61313;48.396;10.008;2023-03-01T14:10:20;24.17;;;16.70;;
8252;SDS011;61313;48.396;10.008;2023-03-01T14:12:53;30.83;;;16.77;;
8252;SDS011;61313;48.396;10.008;2023-03-01T14:15:47;21.67;;;14.60;;
8252;SDS011;61313;48.396;10.008;2023-03-01T14:18:35;22.77;;;15.90;;
8252;SDS011;61313;48.396;10.008;2023-03-01T14:21:13;22.43;;;16.17;;
8252;SDS011;61313;48.396;10.008;2023-03-01T14:23:40;24.20;;;16.97;;
8252;SDS011;61313;48.396;10.008;2023-03-01T14:26:07;23.67;;;16.60;;
8252;SDS011;61313;48.396;10.008;2023-03-01T14:28:36;24.13;;;16.57;;
8252;SDS011;61313;48.396;10.008;2023-03-01T14:31:21;22.90;;;15.27;;
8252;SDS011;61313;48.396;10.008;2023-03-01T14:33:55;24.93;;;17.77;;
8252;SDS011;61313;48.396;10.008;2023-03-01T14:36:25;23.63;;;16.37;;
8252;SDS011;61313;48.396;10.008;2023-03-01T14:38:52;25.57;;;16.00;;
8252;SDS011;61313;48.396;10.008;2023-03-01T14:41:24;16.93;;;14.40;;
8252;SDS011;61313;48.396;10.008;2023-03-01T14:43:55;23.10;;;16.03;;
8252;SDS011;61313;48.396;10.008;2023-03-01T14:46:26;21.33;;;16.10;;
8252;SDS011;61313;48.396;10.008;2023-03-01T14:48:58;20.70;;;14.43;;
8252;SDS011;61313;48.396;10.008;2023-03-01T14:51:28;18.87;;;14.80;;
8252;SDS011;61313;48.396;10.008;2023-03-01T14:53:54;19.13;;;14.33;;
8252;SDS011;61313;48.396;10.008;2023-03-01T14:56:20;22.53;;;18.40;;
8252;SDS011;61313;48.396;10.008;2023-03-01T14:58:46;22.73;;;15.50;;
8252;SDS011;61313;48.396;10.008;2023-03-01T15:01:18;20.77;;;14.93;;
8252;SDS011;61313;48.396;10.008;2023-03-01T15:03:45;20.87;;;16.17;;
8252;SDS011;61313;48.396;10.008;2023-03-01T15:06:17;20.13;;;15.00;;
8252;SDS011;61313;48.396;10.008;2023-03-01T15:08:46;24.97;;;15.40;;
8252;SDS011;61313;48.396;10.008;2023-03-01T15:11:28;23.17;;;15.63;;
8252;SDS011;61313;48.396;10.008;2023-03-01T15:13:55;22.00;;;15.83;;
8252;SDS011;61313;48.396;10.008;2023-03-01T15:16:22;23.83;;;16.50;;
8252;SDS011;61313;48.396;10.008;2023-03-01T15:18:57;23.10;;;14.83;;
8252;SDS011;61313;48.396;10.008;2023-03-01T15:21:33;20.40;;;15.77;;
8252;SDS011;61313;48.396;10.008;2023-03-01T15:26:44;22.50;;;15.90;;
8252;SDS011;61313;48.396;10.008;2023-03-01T15:29:18;18.50;;;14.00;;
8252;SDS011;61313;48.396;10.008;2023-03-01T15:34:29;22.03;;;15.93;;
8252;SDS011;61313;48.396;10.008;2023-03-01T15:36:58;23.17;;;16.67;;
8252;SDS011;61313;48.396;10.008;2023-03-01T15:44:32;20.67;;;15.10;;
8252;SDS011;61313;48.396;10.008;2023-03-01T15:47:00;24.50;;;15.27;;
8252;SDS011;61313;48.396;10.008;2023-03-01T15:49:37;18.50;;;14.50;;
8252;SDS011;61313;48.396;10.008;2023-03-01T15:52:21;19.40;;;14.83;;
8252;SDS011;61313;48.396;10.008;2023-03-01T15:54:59;18.43;;;14.43;;
8252;SDS011;61313;48.396;10.008;2023-03-01T15:57:26;21.10;;;14.00;;
8252;SDS011;61313;48.396;10.008;2023-03-01T15:59:52;19.57;;;12.83;;
8252;SDS011;61313;48.396;10.008;2023-03-01T16:02:17;24.60;;;16.03;;
8252;SDS011;61313;48.396;10.008;2023-03-01T16:04:45;18.10;;;13.53;;
8252;SDS011;61313;48.396;10.008;2023-03-01T16:07:11;16.60;;;14.60;;
8252;SDS011;61313;48.396;10.008;2023-03-01T16:09:37;18.87;;;13.87;;
8252;SDS011;61313;48.396;10.008;2023-03-01T16:12:02;20.70;;;13.70;;
8252;SDS011;61313;48.396;10.008;2023-03-01T16:14:28;20.03;;;13.27;;
8252;SDS011;61313;48.396;10.008;2023-03-01T16:16:54;20.63;;;14.00;;
8252;SDS011;61313;48.396;10.008;2023-03-01T16:19:19;17.20;;;13.97;;
8252;SDS011;61313;48.396;10.008;2023-03-01T16:21:45;17.73;;;14.20;;
8252;SDS011;61313;48.396;10.008;2023-03-01T16:24:12;18.47;;;12.57;;
8252;SDS011;61313;48.396;10.008;2023-03-01T16:26:38;18.50;;;13.00;;
8252;SDS011;61313;48.396;10.008;2023-03-01T16:29:03;17.30;;;12.90;;